sensor_id;sensor_type;location;lat;lon;timestamp;pressure;altitude;pressure_sealevel;temperature;humidity
84145;BME280;74264;48.988;12.040;2024-02-15T00:02:15;98401.25;;;5.63;89.43
84145;BME280;74264;48.988;12.040;2024-02-15T00:04:41;98398.50;;;5.65;89.00
84145;BME280;74264;48.988;12.040;2024-02-15T00:07:07;98395.88;;;5.65;89.02
84145;BME280;74264;48.988;12.040;2024-02-15T00:09:34;98391.59;;;5.64;89.19
84145;BME280;74264;48.988;12.040;2024-02-15T00:11:59;98398.34;;;5.66;89.49
84145;BME280;74264;48.988;12.040;2024-02-15T00:14:26;98403.75;;;5.65;89.57
84145;BME280;74264;48.988;12.040;2024-02-15T00:16:54;98406.50;;;5.63;89.44
84145;BME280;74264;48.988;12.040;2024-02-15T00:19:20;98396.84;;;5.64;89.79
84145;BME280;74264;48.988;12.040;2024-02-15T00:21:47;98397.78;;;5.63;89.87
84145;BME280;74264;48.988;12.040;2024-02-15T00:24:13;98406.63;;;5.62;89.43
84145;BME280;74264;48.988;12.040;2024-02-15T00:26:40;98396.25;;;5.60;89.80
84145;BME280;74264;48.988;12.040;2024-02-15T00:29:07;98400.66;;;5.60;90.17
84145;BME280;74264;48.988;12.040;2024-02-15T00:31:33;98395.66;;;5.57;90.81
84145;BME280;74264;48.988;12.040;2024-02-15T00:33:59;98398.78;;;5.51;90.98
84145;BME280;74264;48.988;12.040;2024-02-15T00:36:25;98395.13;;;5.42;90.91
84145;BME280;74264;48.988;12.040;2024-02-15T00:38:51;98384.72;;;5.41;91.23
84145;BME280;74264;48.988;12.040;2024-02-15T00:41:17;98393.56;;;5.40;91.48
84145;BME280;74264;48.988;12.040;2024-02-15T00:43:45;98391.09;;;5.38;91.24
84145;BME280;74264;48.988;12.040;2024-02-15T00:46:10;98386.41;;;5.42;91.26
84145;BME280;74264;48.988;12.040;2024-02-15T00:48:36;98388.59;;;5.37;91.70
84145;BME280;74264;48.988;12.040;2024-02-15T00:51:02;98385.69;;;5.40;91.77
84145;BME280;74264;48.988;12.040;2024-02-15T00:53:28;98386.75;;;5.37;91.68
84145;BME280;74264;48.988;12.040;2024-02-15T00:55:55;98386.91;;;5.36;91.66
84145;BME280;74264;48.988;12.040;2024-02-15T00:58:21;98391.88;;;5.39;91.98
84145;BME280;74264;48.988;12.040;2024-02-15T01:00:47;98400.47;;;5.41;92.07
84145;BME280;74264;48.988;12.040;2024-02-15T01:03:12;98392.59;;;5.41;92.20
84145;BME280;74264;48.988;12.040;2024-02-15T01:05:38;98396.06;;;5.41;91.79
84145;BME280;74264;48.988;12.040;2024-02-15T01:08:04;98398.44;;;5.44;91.41
84145;BME280;74264;48.988;12.040;2024-02-15T01:10:30;98391.16;;;5.48;91.10
84145;BME280;74264;48.988;12.040;2024-02-15T01:12:56;98392.97;;;5.47;91.23
84145;BME280;74264;48.988;12.040;2024-02-15T01:15:21;98385.06;;;5.47;91.23
84145;BME280;74264;48.988;12.040;2024-02-15T01:17:47;98383.03;;;5.51;91.11
84145;BME280;74264;48.988;12.040;2024-02-15T01:20:13;98384.69;;;5.52;91.26
84145;BME280;74264;48.988;12.040;2024-02-15T01:22:39;98376.72;;;5.53;90.77
84145;BME280;74264;48.988;12.040;2024-02-15T01:25:04;98381.25;;;5.51;91.11
84145;BME280;74264;48.988;12.040;2024-02-15T01:27:30;98384.59;;;5.53;90.81
84145;BME280;74264;48.988;12.040;2024-02-15T01:29:58;98391.63;;;5.53;90.81
84145;BME280;74264;48.988;12.040;2024-02-15T01:32:24;98385.88;;;5.59;90.77
84145;BME280;74264;48.988;12.040;2024-02-15T01:34:51;98387.41;;;5.61;90.96
84145;BME280;74264;48.988;12.040;2024-02-15T01:37:20;98381.31;;;5.61;90.42
84145;BME280;74264;48.988;12.040;2024-02-15T01:39:46;98378.69;;;5.61;90.28
84145;BME280;74264;48.988;12.040;2024-02-15T01:42:12;98375.81;;;5.64;90.34
84145;BME280;74264;48.988;12.040;2024-02-15T01:44:40;98379.88;;;5.68;89.74
84145;BME280;74264;48.988;12.040;2024-02-15T01:47:06;98376.41;;;5.67;89.69
84145;BME280;74264;48.988;12.040;2024-02-15T01:49:34;98387.47;;;5.71;89.67
84145;BME280;74264;48.988;12.040;2024-02-15T01:52:00;98385.56;;;5.73;89.76
84145;BME280;74264;48.988;12.040;2024-02-15T01:54:27;98390.81;;;5.73;89.44
84145;BME280;74264;48.988;12.040;2024-02-15T01:56:54;98387.94;;;5.76;89.59
84145;BME280;74264;48.988;12.040;2024-02-15T01:59:22;98382.81;;;5.74;89.68
84145;BME280;74264;48.988;12.040;2024-02-15T02:01:48;98386.28;;;5.75;89.67
84145;BME280;74264;48.988;12.040;2024-02-15T02:04:14;98374.66;;;5.77;89.42
84145;BME280;74264;48.988;12.040;2024-02-15T02:06:39;98374.09;;;5.74;89.93
84145;BME280;74264;48.988;12.040;2024-02-15T02:09:09;98370.88;;;5.70;90.35
84145;BME280;74264;48.988;12.040;2024-02-15T02:11:36;98375.56;;;5.67;90.60
84145;BME280;74264;48.988;12.040;2024-02-15T02:14:02;98382.72;;;5.65;90.65
84145;BME280;74264;48.988;12.040;2024-02-15T02:16:31;98372.47;;;5.62;90.28
84145;BME280;74264;48.988;12.040;2024-02-15T02:18:58;98374.25;;;5.61;90.72
84145;BME280;74264;48.988;12.040;2024-02-15T02:21:25;98368.69;;;5.55;91.00
84145;BME280;74264;48.988;12.040;2024-02-15T02:23:57;98370.63;;;5.53;91.63
84145;BME280;74264;48.988;12.040;2024-02-15T02:26:24;98360.34;;;5.50;91.28
84145;BME280;74264;48.988;12.040;2024-02-15T02:28:51;98359.88;;;5.45;91.55
84145;BME280;74264;48.988;12.040;2024-02-15T02:31:19;98357.53;;;5.42;91.57
84145;BME280;74264;48.988;12.040;2024-02-15T02:33:51;98360.59;;;5.47;92.05
84145;BME280;74264;48.988;12.040;2024-02-15T02:36:18;98348.31;;;5.47;91.65
84145;BME280;74264;48.988;12.040;2024-02-15T02:38:43;98353.31;;;5.50;91.43
84145;BME280;74264;48.988;12.040;2024-02-15T02:41:11;98355.94;;;5.50;91.81
84145;BME280;74264;48.988;12.040;2024-02-15T02:43:39;98353.16;;;5.52;91.82
84145;BME280;74264;48.988;12.040;2024-02-15T02:46:05;98355.56;;;5.55;91.26
84145;BME280;74264;48.988;12.040;2024-02-15T02:48:31;98356.84;;;5.60;90.93
84145;BME280;74264;48.988;12.040;2024-02-15T02:50:57;98369.16;;;5.60;90.72
84145;BME280;74264;48.988;12.040;2024-02-15T02:53:23;98358.63;;;5.60;90.79
84145;BME280;74264;48.988;12.040;2024-02-15T02:55:49;98366.66;;;5.58;91.62
84145;BME280;74264;48.988;12.040;2024-02-15T02:58:15;98357.22;;;5.56;91.25
84145;BME280;74264;48.988;12.040;2024-02-15T03:00:40;98362.47;;;5.56;91.54
84145;BME280;74264;48.988;12.040;2024-02-15T03:03:06;98360.09;;;5.53;92.06
84145;BME280;74264;48.988;12.040;2024-02-15T03:05:31;98350.53;;;5.52;91.22
84145;BME280;74264;48.988;12.040;2024-02-15T03:07:57;98351.78;;;5.48;91.50
84145;BME280;74264;48.988;12.040;2024-02-15T03:10:23;98348.44;;;5.46;91.80
84145;BME280;74264;48.988;12.040;2024-02-15T03:12:49;98341.38;;;5.46;91.64
84145;BME280;74264;48.988;12.040;2024-02-15T03:15:15;98343.63;;;5.51;91.27
84145;BME280;74264;48.988;12.040;2024-02-15T03:17:43;98343.13;;;5.57;91.36
84145;BME280;74264;48.988;12.040;2024-02-15T03:20:11;98345.38;;;5.61;90.64
84145;BME280;74264;48.988;12.040;2024-02-15T03:22:56;98353.03;;;5.64;90.86
84145;BME280;74264;48.988;12.040;2024-02-15T03:25:22;98348.06;;;5.71;90.40
84145;BME280;74264;48.988;12.040;2024-02-15T03:27:51;98358.31;;;5.74;90.86
84145;BME280;74264;48.988;12.040;2024-02-15T03:30:18;98357.09;;;5.78;90.32
84145;BME280;74264;48.988;12.040;2024-02-15T03:32:45;98356.03;;;5.80;90.48
84145;BME280;74264;48.988;12.040;2024-02-15T03:35:15;98355.19;;;5.80;90.65
84145;BME280;74264;48.988;12.040;2024-02-15T03:37:40;98360.22;;;5.83;90.45
84145;BME280;74264;48.988;12.040;2024-02-15T03:40:08;98355.66;;;5.85;90.76
84145;BME280;74264;48.988;12.040;2024-02-15T03:42:34;98352.22;;;5.84;90.69
84145;BME280;74264;48.988;12.040;2024-02-15T03:45:03;98360.09;;;5.84;90.70
84145;BME280;74264;48.988;12.040;2024-02-15T03:47:29;98362.84;;;5.83;90.70
84145;BME280;74264;48.988;12.040;2024-02-15T03:49:55;98364.53;;;5.84;90.75
84145;BME280;74264;48.988;12.040;2024-02-15T03:52:21;98361.41;;;5.90;90.21
84145;BME280;74264;48.988;12.040;2024-02-15T03:54:47;98361.41;;;5.90;90.74
84145;BME280;74264;48.988;12.040;2024-02-15T03:57:12;98363.88;;;5.91;90.48
84145;BME280;74264;48.988;12.040;2024-02-15T03:59:38;98369.16;;;5.91;90.71
84145;BME280;74264;48.988;12.040;2024-02-15T04:02:05;98370.22;;;5.89;91.11
84145;BME280;74264;48.988;12.040;2024-02-15T04:04:33;98362.34;;;5.89;91.36
84145;BME280;74264;48.988;12.040;2024-02-15T04:06:59;98365.81;;;5.89;91.44
84145;BME280;74264;48.988;12.040;2024-02-15T04:09:25;98370.09;;;5.90;90.91
84145;BME280;74264;48.988;12.040;2024-02-15T04:11:51;98367.22;;;5.93;91.31
84145;BME280;74264;48.988;12.040;2024-02-15T04:14:19;98370.22;;;5.89;91.00
84145;BME280;74264;48.988;12.040;2024-02-15T04:16:45;98372.97;;;5.87;91.10
84145;BME280;74264;48.988;12.040;2024-02-15T04:19:11;98369.50;;;5.87;90.87
84145;BME280;74264;48.988;12.040;2024-02-15T04:21:36;98364.97;;;5.89;91.06
84145;BME280;74264;48.988;12.040;2024-02-15T04:24:03;98371.06;;;5.89;91.19
84145;BME280;74264;48.988;12.040;2024-02-15T04:26:28;98371.91;;;5.90;90.65
84145;BME280;74264;48.988;12.040;2024-02-15T04:28:56;98368.31;;;5.91;90.77
84145;BME280;74264;48.988;12.040;2024-02-15T04:31:21;98356.94;;;5.90;90.72
84145;BME280;74264;48.988;12.040;2024-02-15T04:33:55;98356.13;;;5.90;90.45
84145;BME280;74264;48.988;12.040;2024-02-15T04:36:21;98358.88;;;5.88;90.65
84145;BME280;74264;48.988;12.040;2024-02-15T04:38:51;98350.16;;;5.88;90.45
84145;BME280;74264;48.988;12.040;2024-02-15T04:41:18;98356.13;;;5.90;90.74
84145;BME280;74264;48.988;12.040;2024-02-15T04:43:50;98353.50;;;5.90;90.64
84145;BME280;74264;48.988;12.040;2024-02-15T04:46:16;98355.03;;;5.92;90.39
84145;BME280;74264;48.988;12.040;2024-02-15T04:48:42;98363.63;;;5.94;89.95
84145;BME280;74264;48.988;12.040;2024-02-15T04:51:09;98358.22;;;5.96;90.58
84145;BME280;74264;48.988;12.040;2024-02-15T04:53:36;98355.59;;;5.96;90.09
84145;BME280;74264;48.988;12.040;2024-02-15T04:56:05;98349.91;;;5.91;90.71
84145;BME280;74264;48.988;12.040;2024-02-15T04:58:37;98365.16;;;5.97;90.62
84145;BME280;74264;48.988;12.040;2024-02-15T05:01:03;98363.25;;;5.99;90.25
84145;BME280;74264;48.988;12.040;2024-02-15T05:03:32;98361.00;;;5.94;90.73
84145;BME280;74264;48.988;12.040;2024-02-15T05:06:03;98365.09;;;5.87;90.63
84145;BME280;74264;48.988;12.040;2024-02-15T05:08:32;98359.38;;;5.82;91.12
84145;BME280;74264;48.988;12.040;2024-02-15T05:10:58;98355.91;;;5.82;91.29
84145;BME280;74264;48.988;12.040;2024-02-15T05:13:26;98358.44;;;5.83;91.11
84145;BME280;74264;48.988;12.040;2024-02-15T05:15:52;98354.97;;;5.83;91.07
84145;BME280;74264;48.988;12.040;2024-02-15T05:18:17;98359.38;;;5.82;91.66
84145;BME280;74264;48.988;12.040;2024-02-15T05:20:43;98349.81;;;5.81;91.44
84145;BME280;74264;48.988;12.040;2024-02-15T05:23:09;98359.38;;;5.82;91.36
84145;BME280;74264;48.988;12.040;2024-02-15T05:25:34;98360.22;;;5.83;91.59
84145;BME280;74264;48.988;12.040;2024-02-15T05:28:01;98365.22;;;5.86;91.00
84145;BME280;74264;48.988;12.040;2024-02-15T05:30:27;98365.81;;;5.89;90.70
84145;BME280;74264;48.988;12.040;2024-02-15T05:32:52;98366.50;;;5.91;91.04
84145;BME280;74264;48.988;12.040;2024-02-15T05:35:18;98360.84;;;5.96;91.01
84145;BME280;74264;48.988;12.040;2024-02-15T05:37:44;98360.75;;;5.97;90.44
84145;BME280;74264;48.988;12.040;2024-02-15T05:40:11;98361.56;;;5.98;90.47
84145;BME280;74264;48.988;12.040;2024-02-15T05:42:43;98363.38;;;5.97;90.94
84145;BME280;74264;48.988;12.040;2024-02-15T05:47:52;98361.69;;;5.96;90.61
84145;BME280;74264;48.988;12.040;2024-02-15T05:50:18;98362.53;;;5.97;90.63
84145;BME280;74264;48.988;12.040;2024-02-15T05:52:49;98366.69;;;5.99;90.66
84145;BME280;74264;48.988;12.040;2024-02-15T05:55:16;98364.75;;;6.01;90.42
84145;BME280;74264;48.988;12.040;2024-02-15T05:57:43;98362.28;;;6.00;90.32
84145;BME280;74264;48.988;12.040;2024-02-15T06:00:09;98361.44;;;5.99;90.20
84145;BME280;74264;48.988;12.040;2024-02-15T06:02:35;98359.78;;;5.98;90.54
84145;BME280;74264;48.988;12.040;2024-02-15T06:05:00;98364.19;;;5.98;90.55
84145;BME280;74264;48.988;12.040;2024-02-15T06:07:27;98365.16;;;5.97;90.48
84145;BME280;74264;48.988;12.040;2024-02-15T06:09:53;98363.38;;;5.97;90.64
84145;BME280;74264;48.988;12.040;2024-02-15T06:12:19;98370.56;;;5.95;90.81
84145;BME280;74264;48.988;12.040;2024-02-15T06:14:45;98375.69;;;5.97;90.70
84145;BME280;74264;48.988;12.040;2024-02-15T06:17:11;98365.53;;;5.92;90.87
84145;BME280;74264;48.988;12.040;2024-02-15T06:19:37;98376.63;;;5.96;90.78
84145;BME280;74264;48.988;12.040;2024-02-15T06:22:03;98373.28;;;5.94;90.93
84145;BME280;74264;48.988;12.040;2024-02-15T06:24:29;98376.91;;;5.93;90.90
84145;BME280;74264;48.988;12.040;2024-02-15T06:26:55;98376.06;;;5.92;90.83
84145;BME280;74264;48.988;12.040;2024-02-15T06:29:27;98378.69;;;5.92;90.77
84145;BME280;74264;48.988;12.040;2024-02-15T06:32:12;98383.56;;;5.97;90.71
84145;BME280;74264;48.988;12.040;2024-02-15T06:34:56;98371.28;;;5.97;90.81
84145;BME280;74264;48.988;12.040;2024-02-15T06:37:40;98377.19;;;5.99;90.71
84145;BME280;74264;48.988;12.040;2024-02-15T06:40:24;98379.84;;;5.99;91.18
84145;BME280;74264;48.988;12.040;2024-02-15T06:42:50;98381.25;;;6.03;91.21
84145;BME280;74264;48.988;12.040;2024-02-15T06:45:16;98378.38;;;6.07;90.82
84145;BME280;74264;48.988;12.040;2024-02-15T06:47:43;98387.66;;;6.11;90.68
84145;BME280;74264;48.988;12.040;2024-02-15T06:50:15;98383.38;;;6.10;90.65
84145;BME280;74264;48.988;12.040;2024-02-15T06:52:42;98387.28;;;6.15;90.28
84145;BME280;74264;48.988;12.040;2024-02-15T06:55:08;98397.66;;;6.17;90.24
84145;BME280;74264;48.988;12.040;2024-02-15T06:57:38;98397.53;;;6.18;90.51
84145;BME280;74264;48.988;12.040;2024-02-15T07:00:09;98397.53;;;6.18;90.70
84145;BME280;74264;48.988;12.040;2024-02-15T07:02:36;98398.00;;;6.23;90.09
84145;BME280;74264;48.988;12.040;2024-02-15T07:05:02;98394.97;;;6.28;90.29
84145;BME280;74264;48.988;12.040;2024-02-15T07:07:31;98402.72;;;6.29;89.87
84145;BME280;74264;48.988;12.040;2024-02-15T07:09:57;98401.91;;;6.29;90.02
84145;BME280;74264;48.988;12.040;2024-02-15T07:12:23;98400.09;;;6.29;89.91
84145;BME280;74264;48.988;12.040;2024-02-15T07:14:49;98401.78;;;6.30;90.62
84145;BME280;74264;48.988;12.040;2024-02-15T07:17:15;98401.63;;;6.32;90.08
84145;BME280;74264;48.988;12.040;2024-02-15T07:19:43;98404.13;;;6.33;89.61
84145;BME280;74264;48.988;12.040;2024-02-15T07:22:10;98396.94;;;6.35;89.73
84145;BME280;74264;48.988;12.040;2024-02-15T07:24:36;98398.38;;;6.39;89.87
84145;BME280;74264;48.988;12.040;2024-02-15T07:27:05;98389.50;;;6.40;90.00
84145;BME280;74264;48.988;12.040;2024-02-15T07:29:30;98394.88;;;6.39;90.47
84145;BME280;74264;48.988;12.040;2024-02-15T07:32:01;98398.22;;;6.41;90.27
84145;BME280;74264;48.988;12.040;2024-02-15T07:34:32;98397.38;;;6.40;90.49
84145;BME280;74264;48.988;12.040;2024-02-15T07:36:58;98394.38;;;6.45;90.31
84145;BME280;74264;48.988;12.040;2024-02-15T07:39:25;98388.31;;;6.54;90.55
84145;BME280;74264;48.988;12.040;2024-02-15T07:41:54;98389.97;;;6.55;89.84
84145;BME280;74264;48.988;12.040;2024-02-15T07:44:25;98387.53;;;6.63;88.51
84145;BME280;74264;48.988;12.040;2024-02-15T07:46:55;98392.28;;;6.69;89.21
84145;BME280;74264;48.988;12.040;2024-02-15T07:49:21;98387.72;;;6.71;88.70
84145;BME280;74264;48.988;12.040;2024-02-15T07:51:47;98389.13;;;6.75;88.65
84145;BME280;74264;48.988;12.040;2024-02-15T07:54:21;98391.75;;;6.75;88.47
84145;BME280;74264;48.988;12.040;2024-02-15T07:56:47;98389.41;;;6.81;88.52
84145;BME280;74264;48.988;12.040;2024-02-15T07:59:15;98382.09;;;6.85;88.46
84145;BME280;74264;48.988;12.040;2024-02-15T08:01:47;98392.47;;;6.86;87.98
84145;BME280;74264;48.988;12.040;2024-02-15T08:04:19;98388.63;;;6.90;88.29
84145;BME280;74264;48.988;12.040;2024-02-15T08:06:46;98387.09;;;6.97;87.77
84145;BME280;74264;48.988;12.040;2024-02-15T08:09:15;98382.81;;;6.96;87.74
84145;BME280;74264;48.988;12.040;2024-02-15T08:11:43;98380.47;;;7.03;88.08
84145;BME280;74264;48.988;12.040;2024-02-15T08:14:09;98376.88;;;7.04;87.79
84145;BME280;74264;48.988;12.040;2024-02-15T08:16:37;98380.59;;;7.01;87.38
84145;BME280;74264;48.988;12.040;2024-02-15T08:19:03;98377.13;;;7.01;87.69
84145;BME280;74264;48.988;12.040;2024-02-15T08:21:32;98370.38;;;7.08;88.09
84145;BME280;74264;48.988;12.040;2024-02-15T08:24:06;98367.19;;;7.05;87.82
84145;BME280;74264;48.988;12.040;2024-02-15T08:26:39;98366.91;;;7.08;87.83
84145;BME280;74264;48.988;12.040;2024-02-15T08:29:05;98361.09;;;7.04;87.96
84145;BME280;74264;48.988;12.040;2024-02-15T08:31:35;98358.72;;;7.11;88.03
84145;BME280;74264;48.988;12.040;2024-02-15T08:34:03;98360.84;;;7.17;88.17
84145;BME280;74264;48.988;12.040;2024-02-15T08:36:36;98356.25;;;7.19;88.41
84145;BME280;74264;48.988;12.040;2024-02-15T08:39:01;98348.91;;;7.22;87.49
84145;BME280;74264;48.988;12.040;2024-02-15T08:41:29;98351.97;;;7.27;87.24
84145;BME280;74264;48.988;12.040;2024-02-15T08:43:54;98351.69;;;7.40;86.85
84145;BME280;74264;48.988;12.040;2024-02-15T08:46:23;98356.97;;;7.49;86.93
84145;BME280;74264;48.988;12.040;2024-02-15T08:48:51;98342.16;;;7.58;86.42
84145;BME280;74264;48.988;12.040;2024-02-15T08:51:17;98339.78;;;7.64;86.59
84145;BME280;74264;48.988;12.040;2024-02-15T08:53:43;98338.69;;;7.67;86.15
84145;BME280;74264;48.988;12.040;2024-02-15T08:56:09;98348.13;;;7.60;85.78
84145;BME280;74264;48.988;12.040;2024-02-15T08:58:35;98339.50;;;7.67;86.45
84145;BME280;74264;48.988;12.040;2024-02-15T09:01:01;98343.53;;;7.71;86.18
84145;BME280;74264;48.988;12.040;2024-02-15T09:03:28;98345.06;;;7.74;86.18
84145;BME280;74264;48.988;12.040;2024-02-15T09:05:54;98343.97;;;7.76;86.20
84145;BME280;74264;48.988;12.040;2024-02-15T09:08:19;98341.19;;;7.87;86.78
84145;BME280;74264;48.988;12.040;2024-02-15T09:10:51;98349.34;;;7.75;85.76
84145;BME280;74264;48.988;12.040;2024-02-15T09:13:17;98342.97;;;7.77;85.81
84145;BME280;74264;48.988;12.040;2024-02-15T09:15:43;98341.44;;;7.84;85.91
84145;BME280;74264;48.988;12.040;2024-02-15T09:18:09;98343.38;;;7.92;86.82
84145;BME280;74264;48.988;12.040;2024-02-15T09:20:37;98337.41;;;7.99;86.13
84145;BME280;74264;48.988;12.040;2024-02-15T09:23:05;98336.53;;;8.09;85.90
84145;BME280;74264;48.988;12.040;2024-02-15T09:25:38;98327.91;;;8.16;85.68
84145;BME280;74264;48.988;12.040;2024-02-15T09:28:03;98324.16;;;8.28;86.06
84145;BME280;74264;48.988;12.040;2024-02-15T09:30:29;98330.41;;;8.37;85.40
84145;BME280;74264;48.988;12.040;2024-02-15T09:32:57;98322.47;;;8.37;84.99
84145;BME280;74264;48.988;12.040;2024-02-15T09:35:23;98331.06;;;8.48;84.78
84145;BME280;74264;48.988;12.040;2024-02-15T09:37:49;98328.31;;;8.67;85.04
84145;BME280;74264;48.988;12.040;2024-02-15T09:40:15;98325.63;;;8.77;83.91
84145;BME280;74264;48.988;12.040;2024-02-15T09:42:42;98324.47;;;8.89;84.34
84145;BME280;74264;48.988;12.040;2024-02-15T09:45:11;98322.16;;;9.04;84.88
84145;BME280;74264;48.988;12.040;2024-02-15T09:47:42;98327.09;;;9.16;84.06
84145;BME280;74264;48.988;12.040;2024-02-15T09:50:12;98330.84;;;9.14;83.00
84145;BME280;74264;48.988;12.040;2024-02-15T09:52:47;98328.22;;;9.14;82.66
84145;BME280;74264;48.988;12.040;2024-02-15T09:55:14;98330.09;;;9.21;82.33
84145;BME280;74264;48.988;12.040;2024-02-15T09:57:44;98320.84;;;9.35;82.91
84145;BME280;74264;48.988;12.040;2024-02-15T10:00:12;98314.13;;;9.40;83.08
84145;BME280;74264;48.988;12.040;2024-02-15T10:02:48;98320.22;;;9.41;82.20
84145;BME280;74264;48.988;12.040;2024-02-15T10:05:13;98314.66;;;9.44;82.20
84145;BME280;74264;48.988;12.040;2024-02-15T10:07:40;98313.75;;;9.53;83.37
84145;BME280;74264;48.988;12.040;2024-02-15T10:10:23;98310.19;;;9.62;83.71
84145;BME280;74264;48.988;12.040;2024-02-15T10:12:49;98308.13;;;9.73;82.76
84145;BME280;74264;48.988;12.040;2024-02-15T10:15:37;98311.81;;;9.80;82.58
84145;BME280;74264;48.988;12.040;2024-02-15T10:18:04;98309.78;;;9.92;82.98
84145;BME280;74264;48.988;12.040;2024-02-15T10:20:31;98300.97;;;10.09;83.63
84145;BME280;74264;48.988;12.040;2024-02-15T10:25:29;98310.78;;;10.42;82.62
84145;BME280;74264;48.988;12.040;2024-02-15T10:28:08;98310.00;;;10.50;82.82
84145;BME280;74264;48.988;12.040;2024-02-15T10:30:37;98304.41;;;10.61;82.85
84145;BME280;74264;48.988;12.040;2024-02-15T10:33:04;98301.66;;;10.70;82.88
84145;BME280;74264;48.988;12.040;2024-02-15T10:35:30;98301.47;;;10.72;82.07
84145;BME280;74264;48.988;12.040;2024-02-15T10:38:06;98295.50;;;10.70;82.00
84145;BME280;74264;48.988;12.040;2024-02-15T10:40:35;98292.28;;;10.84;81.62
84145;BME280;74264;48.988;12.040;2024-02-15T10:43:03;98288.66;;;10.93;81.83
84145;BME280;74264;48.988;12.040;2024-02-15T10:45:34;98286.88;;;11.10;83.06
84145;BME280;74264;48.988;12.040;2024-02-15T10:48:02;98286.38;;;11.14;82.13
84145;BME280;74264;48.988;12.040;2024-02-15T10:50:30;98281.75;;;11.16;80.12
84145;BME280;74264;48.988;12.040;2024-02-15T10:52:57;98280.28;;;11.14;80.85
84145;BME280;74264;48.988;12.040;2024-02-15T10:58:01;98267.69;;;11.24;81.27
84145;BME280;74264;48.988;12.040;2024-02-15T11:00:32;98271.50;;;11.29;81.12
84145;BME280;74264;48.988;12.040;2024-02-15T11:03:03;98266.56;;;11.42;81.01
84145;BME280;74264;48.988;12.040;2024-02-15T11:05:37;98260.25;;;11.51;80.62
84145;BME280;74264;48.988;12.040;2024-02-15T11:08:06;98262.44;;;11.56;80.26
84145;BME280;74264;48.988;12.040;2024-02-15T11:10:37;98246.84;;;11.61;79.28
84145;BME280;74264;48.988;12.040;2024-02-15T11:13:03;98246.53;;;11.72;78.67
84145;BME280;74264;48.988;12.040;2024-02-15T11:18:05;98243.19;;;11.94;79.73
84145;BME280;74264;48.988;12.040;2024-02-15T11:23:00;98236.91;;;11.87;77.51
84145;BME280;74264;48.988;12.040;2024-02-15T11:25:37;98231.25;;;11.90;79.08
84145;BME280;74264;48.988;12.040;2024-02-15T11:30:51;98222.25;;;12.15;77.89
84145;BME280;74264;48.988;12.040;2024-02-15T11:33:36;98217.91;;;12.22;76.62
84145;BME280;74264;48.988;12.040;2024-02-15T11:38:30;98209.56;;;12.41;77.01
84145;BME280;74264;48.988;12.040;2024-02-15T11:46:09;98200.22;;;12.45;76.83
84145;BME280;74264;48.988;12.040;2024-02-15T11:48:39;98203.41;;;12.41;76.99
84145;BME280;74264;48.988;12.040;2024-02-15T11:51:06;98193.09;;;12.46;76.24
84145;BME280;74264;48.988;12.040;2024-02-15T11:53:37;98197.19;;;12.56;75.23
84145;BME280;74264;48.988;12.040;2024-02-15T11:56:03;98192.97;;;12.70;76.17
84145;BME280;74264;48.988;12.040;2024-02-15T11:58:35;98196.19;;;12.88;77.24
84145;BME280;74264;48.988;12.040;2024-02-15T12:01:17;98190.97;;;13.03;76.10
84145;BME280;74264;48.988;12.040;2024-02-15T12:04:03;98175.53;;;13.21;76.57
84145;BME280;74264;48.988;12.040;2024-02-15T12:06:47;98176.19;;;13.45;75.77
84145;BME280;74264;48.988;12.040;2024-02-15T12:09:31;98179.00;;;13.81;72.12
84145;BME280;74264;48.988;12.040;2024-02-15T12:12:15;98165.72;;;13.96;70.50
84145;BME280;74264;48.988;12.040;2024-02-15T12:15:03;98162.84;;;14.12;70.27
84145;BME280;74264;48.988;12.040;2024-02-15T12:17:48;98161.75;;;14.21;72.50
84145;BME280;74264;48.988;12.040;2024-02-15T12:20:32;98152.59;;;14.09;71.37
84145;BME280;74264;48.988;12.040;2024-02-15T12:22:59;98154.69;;;14.28;71.56
84145;BME280;74264;48.988;12.040;2024-02-15T12:25:26;98144.84;;;14.43;69.66
84145;BME280;74264;48.988;12.040;2024-02-15T12:27:56;98141.06;;;14.52;69.45
84145;BME280;74264;48.988;12.040;2024-02-15T12:30:22;98151.50;;;14.32;70.20
84145;BME280;74264;48.988;12.040;2024-02-15T12:32:51;98143.50;;;14.32;70.21
84145;BME280;74264;48.988;12.040;2024-02-15T12:35:19;98141.50;;;14.55;68.24
84145;BME280;74264;48.988;12.040;2024-02-15T12:37:46;98138.69;;;14.57;68.15
84145;BME280;74264;48.988;12.040;2024-02-15T12:42:42;98138.16;;;14.03;69.50
84145;BME280;74264;48.988;12.040;2024-02-15T12:45:15;98132.47;;;13.91;70.63
84145;BME280;74264;48.988;12.040;2024-02-15T12:47:43;98133.44;;;13.61;70.72
84145;BME280;74264;48.988;12.040;2024-02-15T12:50:22;98134.88;;;13.86;71.25
84145;BME280;74264;48.988;12.040;2024-02-15T12:52:49;98127.31;;;14.19;68.21
84145;BME280;74264;48.988;12.040;2024-02-15T12:55:22;98127.31;;;14.34;69.96
84145;BME280;74264;48.988;12.040;2024-02-15T12:57:54;98126.50;;;14.69;67.40
84145;BME280;74264;48.988;12.040;2024-02-15T13:00:26;98118.84;;;14.45;68.53
84145;BME280;74264;48.988;12.040;2024-02-15T13:02:57;98111.91;;;14.65;67.84
84145;BME280;74264;48.988;12.040;2024-02-15T13:05:25;98110.75;;;14.53;68.34
84145;BME280;74264;48.988;12.040;2024-02-15T13:07:53;98104.72;;;14.30;69.43
84145;BME280;74264;48.988;12.040;2024-02-15T13:10:22;98104.00;;;14.21;69.62
84145;BME280;74264;48.988;12.040;2024-02-15T13:12:48;98099.84;;;14.19;68.66
84145;BME280;74264;48.988;12.040;2024-02-15T13:15:15;98104.53;;;14.46;67.22
84145;BME280;74264;48.988;12.040;2024-02-15T13:17:46;98096.44;;;14.39;68.34
84145;BME280;74264;48.988;12.040;2024-02-15T13:20:14;98095.34;;;14.19;67.94
84145;BME280;74264;48.988;12.040;2024-02-15T13:22:42;98102.50;;;14.19;69.69
84145;BME280;74264;48.988;12.040;2024-02-15T13:25:13;98093.97;;;14.38;67.92
84145;BME280;74264;48.988;12.040;2024-02-15T13:27:42;98094.31;;;14.49;67.39
84145;BME280;74264;48.988;12.040;2024-02-15T13:30:09;98094.41;;;14.41;68.62